createdAt,value
2023-05-19T00:01:00.380Z,44.77
2023-05-19T00:03:27.537Z,45.06
2023-05-19T00:05:54.412Z,44.98
2023-05-19T00:08:23.546Z,45.24
2023-05-19T00:10:50.674Z,45.43
2023-05-19T00:13:17.534Z,45.57
2023-05-19T00:15:44.442Z,45.58
2023-05-19T00:18:14.117Z,45.95
2023-05-19T00:20:41.407Z,46.11
2023-05-19T00:23:08.280Z,46.88
2023-05-19T00:25:34.975Z,47.44
2023-05-19T00:28:02.494Z,48.67
2023-05-19T00:30:32.362Z,49.81
2023-05-19T00:32:59.142Z,49.84
2023-05-19T00:35:26.086Z,50.50
2023-05-19T00:37:52.904Z,50.48
2023-05-19T00:40:19.567Z,51.07
2023-05-19T00:42:46.158Z,51.70
2023-05-19T00:45:12.726Z,51.66
2023-05-19T00:47:39.639Z,51.99
2023-05-19T00:50:06.653Z,52.42
2023-05-19T00:52:33.303Z,52.41
2023-05-19T00:55:00.028Z,52.90
2023-05-19T00:57:27.181Z,53.16
2023-05-19T00:59:54.081Z,53.36
2023-05-19T01:02:21.600Z,53.61
2023-05-19T01:04:48.982Z,53.56
2023-05-19T01:07:16.496Z,53.42
2023-05-19T01:09:43.104Z,54.01
2023-05-19T01:12:09.777Z,55.10
2023-05-19T01:14:36.433Z,55.38
2023-05-19T01:17:15.903Z,56.16
2023-05-19T01:19:42.440Z,56.20
2023-05-19T01:22:27.969Z,56.46
2023-05-19T01:25:13.214Z,56.56
2023-05-19T01:28:01.311Z,56.71
2023-05-19T01:30:31.504Z,57.09
2023-05-19T01:33:03.446Z,57.01
2023-05-19T01:35:30.970Z,57.34
2023-05-19T01:37:59.116Z,57.28
2023-05-19T01:40:27.160Z,57.66
2023-05-19T01:42:57.417Z,57.98
2023-05-19T01:45:25.153Z,57.52
2023-05-19T01:47:56.794Z,57.83
2023-05-19T01:50:23.833Z,57.53
2023-05-19T01:52:51.295Z,57.77
2023-05-19T01:55:18.241Z,57.62
2023-05-19T01:58:22.583Z,57.83
2023-05-19T02:01:07.626Z,60.86
2023-05-19T02:03:43.138Z,61.83
2023-05-19T02:06:25.009Z,62.63
2023-05-19T02:08:58.977Z,63.06
2023-05-19T02:11:56.950Z,63.03
2023-05-19T02:14:44.427Z,62.97
2023-05-19T02:17:12.664Z,64.34
2023-05-19T02:19:42.612Z,64.40
2023-05-19T02:22:09.279Z,64.88
2023-05-19T02:24:37.661Z,64.60
2023-05-19T02:27:04.458Z,65.17
2023-05-19T02:29:31.097Z,65.43
2023-05-19T02:31:58.824Z,65.64
2023-05-19T02:34:25.638Z,65.83
2023-05-19T02:36:52.330Z,65.82
2023-05-19T02:39:18.874Z,65.68
2023-05-19T02:41:45.419Z,65.88
2023-05-19T02:44:12.031Z,66.07
2023-05-19T02:46:38.634Z,66.43
2023-05-19T02:49:05.389Z,66.47
2023-05-19T02:51:31.967Z,66.85
2023-05-19T02:53:58.624Z,66.87
2023-05-19T02:56:26.490Z,66.81
2023-05-19T02:58:53.168Z,67.12
2023-05-19T03:01:22.140Z,67.31
2023-05-19T03:03:48.868Z,67.44
2023-05-19T03:06:15.657Z,67.43
2023-05-19T03:08:42.523Z,67.48
2023-05-19T03:11:09.228Z,67.66
2023-05-19T03:13:35.802Z,67.77
2023-05-19T03:16:03.350Z,67.53
2023-05-19T03:18:30.073Z,67.84
2023-05-19T03:20:56.855Z,67.98
2023-05-19T03:23:23.679Z,67.89
2023-05-19T03:25:50.864Z,68.15
2023-05-19T03:28:17.415Z,68.06
2023-05-19T03:30:44.183Z,68.18
2023-05-19T03:33:11.262Z,68.32
2023-05-19T03:35:38.131Z,68.19
2023-05-19T03:38:06.099Z,68.39
2023-05-19T03:40:32.977Z,68.20
2023-05-19T03:43:01.100Z,68.52
2023-05-19T03:45:28.072Z,68.14
2023-05-19T03:47:54.654Z,68.20
2023-05-19T03:50:21.664Z,68.57
2023-05-19T03:52:48.961Z,68.19
2023-05-19T03:55:16.379Z,68.56
2023-05-19T03:57:44.392Z,68.56
2023-05-19T04:00:12.980Z,68.52
2023-05-19T04:02:39.931Z,68.42
2023-05-19T04:05:07.284Z,68.52
2023-05-19T04:07:34.050Z,68.43
2023-05-19T04:10:00.746Z,68.48
2023-05-19T04:12:27.358Z,68.16
2023-05-19T04:14:54.193Z,68.06
2023-05-19T04:17:21.787Z,68.31
2023-05-19T04:19:48.405Z,68.05
2023-05-19T04:22:14.919Z,68.19
2023-05-19T04:24:41.582Z,68.06
2023-05-19T04:27:12.229Z,67.74
2023-05-19T04:29:40.071Z,67.55
2023-05-19T04:32:07.851Z,67.97
2023-05-19T04:34:35.437Z,67.82
2023-05-19T04:37:02.565Z,67.67
2023-05-19T04:39:29.126Z,67.72
2023-05-19T04:41:56.639Z,67.59
2023-05-19T04:44:23.215Z,67.52
2023-05-19T04:46:50.159Z,67.36
2023-05-19T04:49:19.213Z,67.26
2023-05-19T04:51:46.164Z,67.37
2023-05-19T04:54:12.734Z,67.31
2023-05-19T04:56:39.359Z,67.15
2023-05-19T04:59:06.955Z,67.10
2023-05-19T05:01:33.984Z,67.02
2023-05-19T05:04:02.592Z,66.78
2023-05-19T05:06:29.551Z,66.70
2023-05-19T05:08:57.028Z,66.53
2023-05-19T05:11:24.095Z,65.91
2023-05-19T05:13:51.012Z,66.20
2023-05-19T05:16:18.105Z,65.84
2023-05-19T05:18:46.870Z,66.16
2023-05-19T05:21:13.808Z,65.94
2023-05-19T05:23:40.606Z,65.74
2023-05-19T05:26:12.494Z,65.77
2023-05-19T05:28:39.052Z,65.42
2023-05-19T05:31:05.624Z,65.63
2023-05-19T05:33:32.222Z,65.33
2023-05-19T05:35:58.819Z,65.09
2023-05-19T05:38:25.528Z,64.88
2023-05-19T05:40:52.253Z,64.96
2023-05-19T05:43:18.854Z,64.52
2023-05-19T05:45:45.480Z,64.47
2023-05-19T05:48:12.370Z,64.42
2023-05-19T05:50:39.304Z,64.48
2023-05-19T05:53:07.267Z,64.23
2023-05-19T05:55:34.443Z,63.97
2023-05-19T05:58:02.362Z,64.23
2023-05-19T06:00:29.928Z,64.08
2023-05-19T06:02:57.298Z,63.76
2023-05-19T06:05:25.175Z,63.90
2023-05-19T06:07:51.919Z,63.54
2023-05-19T06:10:18.726Z,63.38
2023-05-19T06:12:45.472Z,63.47
2023-05-19T06:15:12.155Z,63.70
2023-05-19T06:17:38.976Z,63.53
2023-05-19T06:20:06.773Z,63.74
2023-05-19T06:22:33.513Z,63.35
2023-05-19T06:25:00.168Z,63.53
2023-05-19T06:27:26.747Z,63.47
2023-05-19T06:29:59.874Z,63.47
2023-05-19T06:32:30.456Z,63.12
2023-05-19T06:35:01.701Z,63.45
2023-05-19T06:37:28.455Z,63.42
2023-05-19T06:39:55.089Z,63.31
2023-05-19T06:42:22.796Z,63.06
2023-05-19T06:44:50.150Z,63.37
2023-05-19T06:47:19.864Z,63.38
2023-05-19T06:49:46.630Z,63.39
2023-05-19T06:52:13.217Z,63.63
2023-05-19T06:54:39.774Z,63.90
2023-05-19T06:57:06.740Z,64.23
2023-05-19T06:59:33.497Z,64.68
2023-05-19T07:02:00.186Z,64.76
2023-05-19T07:04:27.651Z,65.31
2023-05-19T07:06:55.074Z,65.19
2023-05-19T07:09:21.986Z,65.30
2023-05-19T07:11:48.872Z,65.16
2023-05-19T07:14:16.072Z,64.84
2023-05-19T07:16:42.734Z,64.67
2023-05-19T07:19:09.393Z,64.84
2023-05-19T07:21:36.240Z,64.59
2023-05-19T07:24:02.806Z,64.65
2023-05-19T07:26:29.653Z,65.19
2023-05-19T07:28:56.874Z,65.04
2023-05-19T07:31:23.595Z,64.85
2023-05-19T07:33:52.249Z,64.71
2023-05-19T07:36:20.311Z,64.45
2023-05-19T07:38:47.173Z,64.57
2023-05-19T07:41:13.811Z,64.49
2023-05-19T07:43:40.587Z,64.70
2023-05-19T07:46:07.227Z,64.68
2023-05-19T07:48:33.875Z,64.75
2023-05-19T07:51:01.009Z,64.59
2023-05-19T07:53:28.076Z,64.71
2023-05-19T07:55:55.468Z,65.05
2023-05-19T07:58:23.047Z,65.08
2023-05-19T08:00:49.684Z,65.67
2023-05-19T08:03:18.488Z,67.29
2023-05-19T08:05:45.623Z,67.84
2023-05-19T08:08:12.835Z,68.01
2023-05-19T08:10:39.551Z,68.29
2023-05-19T08:13:06.206Z,68.53
2023-05-19T08:15:32.953Z,69.11
2023-05-19T08:17:59.715Z,68.98
2023-05-19T08:20:26.399Z,69.20
2023-05-19T08:22:53.037Z,69.44
2023-05-19T08:25:19.917Z,69.51
2023-05-19T08:27:46.490Z,69.41
2023-05-19T08:30:13.305Z,69.96
2023-05-19T08:32:39.952Z,70.13
2023-05-19T08:35:07.652Z,70.37
2023-05-19T08:37:37.096Z,70.54
2023-05-19T08:40:05.577Z,70.70
2023-05-19T08:42:33.253Z,70.66
2023-05-19T08:45:01.013Z,71.05
2023-05-19T08:47:28.188Z,70.74
2023-05-19T08:50:05.276Z,70.63
2023-05-19T08:52:49.559Z,71.05
2023-05-19T08:55:39.447Z,71.21
2023-05-19T08:58:06.205Z,71.16
2023-05-19T09:00:33.868Z,71.69
2023-05-19T09:03:17.573Z,71.63
2023-05-19T09:05:46.564Z,71.86
2023-05-19T09:08:13.500Z,71.95
2023-05-19T09:10:40.259Z,71.62
2023-05-19T09:13:06.930Z,71.44
2023-05-19T09:15:36.869Z,71.75
2023-05-19T09:18:14.371Z,71.35
2023-05-19T09:20:43.173Z,71.58
2023-05-19T09:23:17.043Z,71.94
2023-05-19T09:25:50.998Z,71.87
2023-05-19T09:28:31.751Z,71.73
2023-05-19T09:31:08.967Z,71.96
2023-05-19T09:33:37.712Z,72.28
2023-05-19T09:36:11.633Z,72.00
2023-05-19T09:38:38.987Z,71.62
2023-05-19T09:41:06.745Z,72.02
2023-05-19T09:43:34.561Z,71.92
2023-05-19T09:46:04.862Z,72.13
2023-05-19T09:48:31.633Z,72.01
2023-05-19T09:50:59.023Z,72.50
2023-05-19T09:53:25.890Z,72.00
2023-05-19T09:55:59.886Z,72.40
2023-05-19T09:58:27.141Z,72.24
2023-05-19T10:00:57.213Z,72.40
2023-05-19T10:03:24.158Z,72.70
2023-05-19T10:05:51.496Z,72.81
2023-05-19T10:08:18.250Z,72.57
2023-05-19T10:10:47.069Z,72.61
2023-05-19T10:13:14.068Z,72.76
2023-05-19T10:15:57.301Z,72.84
2023-05-19T10:18:26.279Z,72.44
2023-05-19T10:20:52.943Z,72.69
2023-05-19T10:23:19.552Z,72.51
2023-05-19T10:25:46.451Z,72.76
2023-05-19T10:28:15.320Z,72.78
2023-05-19T10:30:45.532Z,72.50
2023-05-19T10:33:14.922Z,72.71
2023-05-19T10:35:47.557Z,72.83
2023-05-19T10:38:26.006Z,72.13
2023-05-19T10:41:13.211Z,72.33
2023-05-19T10:44:11.599Z,72.57
2023-05-19T10:46:40.137Z,72.94
2023-05-19T10:49:08.083Z,72.57
2023-05-19T10:51:36.114Z,72.77
2023-05-19T10:54:11.042Z,72.90
2023-05-19T10:56:42.526Z,73.06
2023-05-19T10:59:32.583Z,72.77
2023-05-19T11:02:07.059Z,72.88
2023-05-19T11:04:54.075Z,73.21
2023-05-19T11:07:22.389Z,73.36
2023-05-19T11:09:51.457Z,72.93
2023-05-19T11:12:24.771Z,72.95
2023-05-19T11:14:58.086Z,72.95
2023-05-19T11:17:25.680Z,72.95
2023-05-19T11:19:56.552Z,72.80
2023-05-19T11:22:25.890Z,72.70
2023-05-19T11:24:54.570Z,72.65
2023-05-19T11:27:31.622Z,72.50
2023-05-19T11:30:00.278Z,72.66
2023-05-19T11:32:29.364Z,72.55
2023-05-19T11:34:56.998Z,72.32
2023-05-19T11:37:23.830Z,72.36
2023-05-19T11:39:50.756Z,72.42
2023-05-19T11:42:17.369Z,72.25
2023-05-19T11:44:47.564Z,72.16
2023-05-19T11:47:15.068Z,71.96
2023-05-19T11:49:45.966Z,71.79
2023-05-19T11:52:12.901Z,71.71
2023-05-19T11:54:41.865Z,71.52
2023-05-19T11:57:14.044Z,71.78
2023-05-19T11:59:45.475Z,71.65
2023-05-19T12:02:23.063Z,71.13
2023-05-19T12:04:49.885Z,71.33
2023-05-19T12:07:18.411Z,71.12
2023-05-19T12:09:49.365Z,70.83
2023-05-19T12:12:23.162Z,70.62
2023-05-19T12:14:54.177Z,70.41
2023-05-19T12:17:21.417Z,70.19
2023-05-19T12:19:48.965Z,69.98
2023-05-19T12:22:16.816Z,69.90
2023-05-19T12:24:44.418Z,69.57
2023-05-19T12:27:15.519Z,69.47
2023-05-19T12:29:42.179Z,69.37
2023-05-19T12:32:09.593Z,69.23
2023-05-19T12:34:38.330Z,69.26
2023-05-19T12:37:06.011Z,68.98
2023-05-19T12:39:33.857Z,69.06
2023-05-19T12:42:05.033Z,68.55
2023-05-19T12:44:31.656Z,68.49
2023-05-19T12:46:59.579Z,68.44
2023-05-19T12:49:26.242Z,68.46
2023-05-19T12:51:53.980Z,68.57
2023-05-19T12:54:23.712Z,68.18
2023-05-19T12:56:53.982Z,68.19
2023-05-19T12:59:37.404Z,68.11
2023-05-19T13:02:05.316Z,68.02
2023-05-19T13:04:32.133Z,67.61
2023-05-19T13:06:58.760Z,67.34
2023-05-19T13:09:25.802Z,67.48
2023-05-19T13:11:54.070Z,66.99
2023-05-19T13:14:20.975Z,66.75
2023-05-19T13:16:47.621Z,66.78
2023-05-19T13:19:25.431Z,66.78
2023-05-19T13:21:52.803Z,66.72
2023-05-19T13:24:19.473Z,66.47
2023-05-19T13:26:46.129Z,66.54
2023-05-19T13:29:12.692Z,66.50
2023-05-19T13:31:39.411Z,65.99
2023-05-19T13:34:05.991Z,65.89
2023-05-19T13:36:36.597Z,65.72
2023-05-19T13:39:03.567Z,65.70
2023-05-19T13:41:30.242Z,65.52
2023-05-19T13:43:59.388Z,65.82
2023-05-19T13:46:36.506Z,65.55
2023-05-19T13:49:10.605Z,65.77
2023-05-19T13:51:37.692Z,65.80
2023-05-19T13:54:05.165Z,65.51
2023-05-19T13:56:31.993Z,65.65
2023-05-19T13:58:58.656Z,65.69
2023-05-19T14:01:25.479Z,65.96
2023-05-19T14:03:52.602Z,65.91
2023-05-19T14:06:19.657Z,65.51
2023-05-19T14:08:46.489Z,65.59
2023-05-19T14:11:20.152Z,65.46
2023-05-19T14:13:51.172Z,64.89
2023-05-19T14:16:20.458Z,64.73
2023-05-19T14:18:47.159Z,64.68
2023-05-19T14:21:13.852Z,64.65
2023-05-19T14:23:40.558Z,64.47
2023-05-19T14:26:07.308Z,64.17
2023-05-19T14:28:34.032Z,64.00
2023-05-19T14:31:00.744Z,64.22
2023-05-19T14:33:27.341Z,64.15
2023-05-19T14:35:54.167Z,64.21
2023-05-19T14:38:20.867Z,63.99
2023-05-19T14:40:48.604Z,63.79
2023-05-19T14:43:15.518Z,63.95
2023-05-19T14:45:42.219Z,64.12
2023-05-19T14:48:10.848Z,64.00
2023-05-19T14:50:38.237Z,64.26
2023-05-19T14:53:04.960Z,64.01
2023-05-19T14:55:31.879Z,64.32
2023-05-19T14:57:58.773Z,64.18
2023-05-19T15:00:28.449Z,64.10
2023-05-19T15:02:55.158Z,64.14
2023-05-19T15:05:24.008Z,63.85
2023-05-19T15:07:50.927Z,64.15
2023-05-19T15:10:21.846Z,63.81
2023-05-19T15:12:48.664Z,63.88
2023-05-19T15:15:17.768Z,63.70
2023-05-19T15:17:47.004Z,63.86
2023-05-19T15:20:13.780Z,63.63
2023-05-19T15:22:40.323Z,63.58
2023-05-19T15:25:07.578Z,63.64
2023-05-19T15:27:37.347Z,64.00
2023-05-19T15:30:04.889Z,63.86
2023-05-19T15:32:31.637Z,64.00
2023-05-19T15:34:58.289Z,64.30
2023-05-19T15:37:24.948Z,63.98
2023-05-19T15:39:51.844Z,64.06
2023-05-19T15:42:18.546Z,63.93
2023-05-19T15:44:46.273Z,63.73
2023-05-19T15:47:12.984Z,64.06
2023-05-19T15:49:39.556Z,63.97
2023-05-19T15:52:06.568Z,63.83
2023-05-19T15:54:33.209Z,63.99
2023-05-19T15:56:59.758Z,63.63
2023-05-19T15:59:26.352Z,63.80
2023-05-19T16:01:53.310Z,63.47
2023-05-19T16:04:20.071Z,63.31
2023-05-19T16:06:46.792Z,63.29
2023-05-19T16:09:13.396Z,63.71
2023-05-19T16:11:39.961Z,63.75
2023-05-19T16:14:06.569Z,63.39
2023-05-19T16:16:33.219Z,63.36
2023-05-19T16:18:59.840Z,62.99
2023-05-19T16:21:26.513Z,62.69
2023-05-19T16:23:53.083Z,62.92
2023-05-19T16:26:19.733Z,62.76
2023-05-19T16:28:46.302Z,62.40
2023-05-19T16:31:12.904Z,62.54
2023-05-19T16:33:40.103Z,62.15
2023-05-19T16:36:06.910Z,62.30
2023-05-19T16:38:34.103Z,62.27
2023-05-19T16:41:00.873Z,62.14
2023-05-19T16:43:27.494Z,62.37
2023-05-19T16:45:54.133Z,62.40
2023-05-19T16:48:20.798Z,62.26
2023-05-19T16:50:50.639Z,62.31
2023-05-19T16:53:17.493Z,62.00
2023-05-19T16:55:44.191Z,62.01
2023-05-19T16:58:11.606Z,62.01
2023-05-19T17:00:38.334Z,61.79
2023-05-19T17:03:05.013Z,61.84
2023-05-19T17:05:32.279Z,62.00
2023-05-19T17:07:58.982Z,61.82
2023-05-19T17:10:25.569Z,62.03
2023-05-19T17:12:52.126Z,62.02
2023-05-19T17:15:19.187Z,62.12
2023-05-19T17:17:45.889Z,62.01
2023-05-19T17:20:13.376Z,62.25
2023-05-19T17:22:39.957Z,62.24
2023-05-19T17:25:07.056Z,62.11
2023-05-19T17:27:33.651Z,62.17
2023-05-19T17:30:00.300Z,62.10
2023-05-19T17:32:28.952Z,61.97
2023-05-19T17:34:55.789Z,62.32
2023-05-19T17:37:25.754Z,62.28
2023-05-19T17:39:52.433Z,62.36
2023-05-19T17:42:18.992Z,62.17
2023-05-19T17:44:45.624Z,62.34
2023-05-19T17:47:12.166Z,62.10
2023-05-19T17:49:40.241Z,61.86
2023-05-19T17:52:07.658Z,62.25
2023-05-19T17:54:34.894Z,62.25
2023-05-19T17:57:03.527Z,62.31
2023-05-19T17:59:30.554Z,62.06
2023-05-19T18:01:57.539Z,62.26
2023-05-19T18:04:24.532Z,61.96
2023-05-19T18:06:52.268Z,62.05
2023-05-19T18:09:23.455Z,62.45
2023-05-19T18:11:49.993Z,61.93
2023-05-19T18:14:16.563Z,61.97
2023-05-19T18:16:43.176Z,61.91
2023-05-19T18:19:09.978Z,61.70
2023-05-19T18:21:36.583Z,61.69
2023-05-19T18:24:04.479Z,61.99
2023-05-19T18:26:31.433Z,61.56
2023-05-19T18:29:02.543Z,61.74
2023-05-19T18:31:29.155Z,61.82
2023-05-19T18:33:56.203Z,61.91
2023-05-19T18:36:23.862Z,61.48
2023-05-19T18:38:50.622Z,61.76
2023-05-19T18:41:17.265Z,61.67
2023-05-19T18:43:43.872Z,61.54
2023-05-19T18:46:10.722Z,61.29
2023-05-19T18:48:37.381Z,61.34
2023-05-19T18:51:04.108Z,61.42
2023-05-19T18:53:34.722Z,61.33
2023-05-19T18:56:01.684Z,61.49
2023-05-19T18:58:28.282Z,61.48
2023-05-19T19:00:55.802Z,61.14
2023-05-19T19:03:22.824Z,61.31
2023-05-19T19:05:56.893Z,61.33
2023-05-19T19:08:23.624Z,61.46
2023-05-19T19:10:51.805Z,60.99
2023-05-19T19:13:18.701Z,60.97
2023-05-19T19:15:46.386Z,61.10
2023-05-19T19:18:13.384Z,61.05
2023-05-19T19:20:40.043Z,60.91
2023-05-19T19:23:07.444Z,61.14
2023-05-19T19:25:34.132Z,60.88
2023-05-19T19:28:01.589Z,60.75
2023-05-19T19:30:29.600Z,60.88
2023-05-19T19:32:57.058Z,60.54
2023-05-19T19:35:23.814Z,60.50
2023-05-19T19:37:52.321Z,60.47
2023-05-19T19:40:18.986Z,60.71
2023-05-19T19:42:45.819Z,60.69
2023-05-19T19:45:14.893Z,60.60
2023-05-19T19:47:42.263Z,60.50
2023-05-19T19:50:09.520Z,60.30
2023-05-19T19:52:36.924Z,60.57
2023-05-19T19:55:03.900Z,60.45
2023-05-19T19:57:31.736Z,60.66
2023-05-19T20:00:05.882Z,60.27
2023-05-19T20:02:32.822Z,60.50
2023-05-19T20:05:03.736Z,60.54
2023-05-19T20:07:30.414Z,60.16
2023-05-19T20:09:57.665Z,60.22
2023-05-19T20:12:24.473Z,60.19
2023-05-19T20:14:54.076Z,60.29
2023-05-19T20:17:21.227Z,60.33
2023-05-19T20:19:48.147Z,60.13
2023-05-19T20:22:15.484Z,60.13
2023-05-19T20:24:42.051Z,60.07
2023-05-19T20:27:09.433Z,60.17
2023-05-19T20:29:36.683Z,59.76
2023-05-19T20:32:03.382Z,59.82
2023-05-19T20:34:30.024Z,59.79
2023-05-19T20:36:56.746Z,59.67
2023-05-19T20:39:23.324Z,59.65
2023-05-19T20:41:49.879Z,59.63
2023-05-19T20:44:16.487Z,59.26
2023-05-19T20:46:43.093Z,59.37
2023-05-19T20:49:09.693Z,59.24
2023-05-19T20:51:36.326Z,59.50
2023-05-19T20:54:02.951Z,59.36
2023-05-19T20:56:29.506Z,59.07
2023-05-19T20:58:56.172Z,59.30
2023-05-19T21:01:22.867Z,59.37
2023-05-19T21:03:49.516Z,58.98
2023-05-19T21:06:16.127Z,58.86
2023-05-19T21:08:42.674Z,58.97
2023-05-19T21:11:09.290Z,58.97
2023-05-19T21:13:39.087Z,58.88
2023-05-19T21:16:06.134Z,58.80
2023-05-19T21:18:32.804Z,58.88
2023-05-19T21:21:02.192Z,58.82
2023-05-19T21:23:28.839Z,58.69
2023-05-19T21:25:57.173Z,58.69
2023-05-19T21:28:23.753Z,58.31
2023-05-19T21:30:50.510Z,58.29
2023-05-19T21:33:17.407Z,58.59
2023-05-19T21:35:45.463Z,58.58
2023-05-19T21:38:23.354Z,58.39
2023-05-19T21:40:50.888Z,58.17
2023-05-19T21:43:17.524Z,58.33
2023-05-19T21:45:44.126Z,58.18
2023-05-19T21:48:11.451Z,58.28
2023-05-19T21:50:38.981Z,58.28
2023-05-19T21:53:05.647Z,58.26
2023-05-19T21:55:32.310Z,58.16
2023-05-19T21:58:00.877Z,57.99
2023-05-19T22:00:28.889Z,58.19
2023-05-19T22:02:55.631Z,57.79
2023-05-19T22:05:22.268Z,58.07
2023-05-19T22:07:48.839Z,57.72
2023-05-19T22:10:15.438Z,58.00
2023-05-19T22:12:42.000Z,57.62
2023-05-19T22:15:09.256Z,57.93
2023-05-19T22:17:35.934Z,57.91
2023-05-19T22:20:02.591Z,57.97
2023-05-19T22:22:29.185Z,57.87
2023-05-19T22:24:55.877Z,57.83
2023-05-19T22:27:22.465Z,57.62
2023-05-19T22:29:49.046Z,57.61
2023-05-19T22:32:18.101Z,57.57
2023-05-19T22:34:44.963Z,57.42
2023-05-19T22:37:11.766Z,57.77
2023-05-19T22:39:39.000Z,57.53
2023-05-19T22:42:05.989Z,57.46
2023-05-19T22:44:32.610Z,57.78
2023-05-19T22:46:59.163Z,57.38
2023-05-19T22:49:27.420Z,57.62
2023-05-19T22:51:54.079Z,57.56
2023-05-19T22:54:20.722Z,57.57
2023-05-19T22:56:48.941Z,57.44
2023-05-19T22:59:18.036Z,57.30
2023-05-19T23:01:46.808Z,57.53
2023-05-19T23:04:14.055Z,57.44
2023-05-19T23:06:40.778Z,57.46
2023-05-19T23:09:07.790Z,57.35
2023-05-19T23:11:35.834Z,57.52
2023-05-19T23:14:02.587Z,57.36
2023-05-19T23:16:29.358Z,57.29
2023-05-19T23:18:56.004Z,57.09
2023-05-19T23:21:22.712Z,57.31
2023-05-19T23:23:49.796Z,57.37
2023-05-19T23:26:16.572Z,57.12
2023-05-19T23:28:43.478Z,57.37
2023-05-19T23:31:10.463Z,57.27
2023-05-19T23:33:37.090Z,57.11
2023-05-19T23:36:08.326Z,57.16
2023-05-19T23:38:35.655Z,57.17
2023-05-19T23:41:02.425Z,57.25
2023-05-19T23:43:29.307Z,57.02
2023-05-19T23:45:55.965Z,57.11
2023-05-19T23:48:22.550Z,56.92
2023-05-19T23:50:49.227Z,56.94
2023-05-19T23:53:15.918Z,56.99
2023-05-19T23:55:42.566Z,57.13
2023-05-19T23:58:09.257Z,57.08
